sensor_id;sensor_type;location;lat;lon;timestamp;pressure;altitude;pressure_sealevel;temperature;humidity
57452;BME280;54295;51.224;-0.164;2022-07-25T00:00:42;100284.44;;;24.46;43.05
57452;BME280;54295;51.224;-0.164;2022-07-25T00:03:09;100278.30;;;24.23;43.13
57452;BME280;54295;51.224;-0.164;2022-07-25T00:05:36;100279.35;;;24.45;43.14
57452;BME280;54295;51.224;-0.164;2022-07-25T00:08:03;100274.64;;;24.22;43.23
57452;BME280;54295;51.224;-0.164;2022-07-25T00:10:30;100270.73;;;24.44;43.23
57452;BME280;54295;51.224;-0.164;2022-07-25T00:12:57;100262.26;;;24.22;43.29
57452;BME280;54295;51.224;-0.164;2022-07-25T00:15:24;100256.67;;;24.19;43.37
57452;BME280;54295;51.224;-0.164;2022-07-25T00:17:51;100258.60;;;24.02;43.31
57452;BME280;54295;51.224;-0.164;2022-07-25T00:20:18;100256.42;;;24.26;43.32
57452;BME280;54295;51.224;-0.164;2022-07-25T00:22:45;100251.05;;;24.50;43.36
57452;BME280;54295;51.224;-0.164;2022-07-25T00:25:12;100251.99;;;24.49;43.40
57452;BME280;54295;51.224;-0.164;2022-07-25T00:27:39;100238.97;;;24.27;43.57
57452;BME280;54295;51.224;-0.164;2022-07-25T00:30:06;100236.50;;;24.50;43.53
57452;BME280;54295;51.224;-0.164;2022-07-25T00:32:34;100236.45;;;24.43;43.58
57452;BME280;54295;51.224;-0.164;2022-07-25T00:35:01;100233.38;;;24.43;43.60
57452;BME280;54295;51.224;-0.164;2022-07-25T00:37:28;100229.39;;;24.18;43.57
57452;BME280;54295;51.224;-0.164;2022-07-25T00:39:55;100236.70;;;24.18;43.59
57452;BME280;54295;51.224;-0.164;2022-07-25T00:42:22;100247.13;;;24.41;43.63
57452;BME280;54295;51.224;-0.164;2022-07-25T00:44:49;100242.19;;;24.41;43.66
57452;BME280;54295;51.224;-0.164;2022-07-25T00:47:16;100238.36;;;24.26;43.61
57452;BME280;54295;51.224;-0.164;2022-07-25T00:49:43;100238.94;;;24.03;43.56
57452;BME280;54295;51.224;-0.164;2022-07-25T00:52:10;100232.25;;;24.17;43.67
57452;BME280;54295;51.224;-0.164;2022-07-25T00:54:37;100230.22;;;24.14;43.73
57452;BME280;54295;51.224;-0.164;2022-07-25T00:57:04;100228.73;;;24.05;43.83
57452;BME280;54295;51.224;-0.164;2022-07-25T00:59:31;100234.39;;;23.97;43.89
57452;BME280;54295;51.224;-0.164;2022-07-25T01:01:58;100232.72;;;24.10;44.00
57452;BME280;54295;51.224;-0.164;2022-07-25T01:04:25;100223.07;;;24.00;44.02
57452;BME280;54295;51.224;-0.164;2022-07-25T01:06:52;100219.86;;;23.86;44.06
57452;BME280;54295;51.224;-0.164;2022-07-25T01:09:20;100219.66;;;23.74;44.21
57452;BME280;54295;51.224;-0.164;2022-07-25T01:11:47;100219.98;;;23.59;44.36
57452;BME280;54295;51.224;-0.164;2022-07-25T01:14:15;100219.57;;;23.42;44.53
57452;BME280;54295;51.224;-0.164;2022-07-25T01:16:42;100215.68;;;23.31;44.61
57452;BME280;54295;51.224;-0.164;2022-07-25T01:19:09;100219.72;;;23.52;44.62
57452;BME280;54295;51.224;-0.164;2022-07-25T01:21:37;100218.11;;;23.36;44.76
57452;BME280;54295;51.224;-0.164;2022-07-25T01:24:06;100213.48;;;23.21;44.90
57452;BME280;54295;51.224;-0.164;2022-07-25T01:26:33;100215.10;;;23.09;44.99
57452;BME280;54295;51.224;-0.164;2022-07-25T01:29:00;100218.90;;;23.21;45.09
57452;BME280;54295;51.224;-0.164;2022-07-25T01:31:27;100216.86;;;22.89;45.19
57452;BME280;54295;51.224;-0.164;2022-07-25T01:33:54;100219.27;;;23.05;45.19
57452;BME280;54295;51.224;-0.164;2022-07-25T01:36:21;100217.78;;;22.98;45.24
57452;BME280;54295;51.224;-0.164;2022-07-25T01:38:48;100218.49;;;22.92;45.35
57452;BME280;54295;51.224;-0.164;2022-07-25T01:41:15;100218.95;;;22.84;45.51
57452;BME280;54295;51.224;-0.164;2022-07-25T01:43:42;100213.64;;;22.80;45.52
57452;BME280;54295;51.224;-0.164;2022-07-25T01:46:09;100211.75;;;22.80;45.47
57452;BME280;54295;51.224;-0.164;2022-07-25T01:48:35;100210.69;;;22.77;45.45
57452;BME280;54295;51.224;-0.164;2022-07-25T01:51:03;100211.10;;;22.79;45.33
57452;BME280;54295;51.224;-0.164;2022-07-25T01:53:30;100206.07;;;22.73;45.24
57452;BME280;54295;51.224;-0.164;2022-07-25T01:55:57;100214.66;;;22.72;45.18
57452;BME280;54295;51.224;-0.164;2022-07-25T01:58:24;100214.19;;;22.49;45.17
57452;BME280;54295;51.224;-0.164;2022-07-25T02:00:51;100214.15;;;22.73;45.07
57452;BME280;54295;51.224;-0.164;2022-07-25T02:03:18;100216.64;;;23.00;45.08
57452;BME280;54295;51.224;-0.164;2022-07-25T02:05:45;100214.98;;;22.76;45.01
57452;BME280;54295;51.224;-0.164;2022-07-25T02:08:12;100219.32;;;22.79;44.88
57452;BME280;54295;51.224;-0.164;2022-07-25T02:10:39;100216.13;;;22.82;44.75
57452;BME280;54295;51.224;-0.164;2022-07-25T02:13:06;100222.28;;;22.86;44.64
57452;BME280;54295;51.224;-0.164;2022-07-25T02:15:33;100212.01;;;22.90;44.57
57452;BME280;54295;51.224;-0.164;2022-07-25T02:18:01;100201.47;;;23.01;44.50
57452;BME280;54295;51.224;-0.164;2022-07-25T02:20:28;100203.97;;;23.06;44.53
57452;BME280;54295;51.224;-0.164;2022-07-25T02:22:54;100202.16;;;23.03;44.61
57452;BME280;54295;51.224;-0.164;2022-07-25T02:25:21;100200.81;;;23.02;44.67
57452;BME280;54295;51.224;-0.164;2022-07-25T02:27:49;100194.49;;;22.98;44.68
57452;BME280;54295;51.224;-0.164;2022-07-25T02:30:15;100202.84;;;22.70;44.72
57452;BME280;54295;51.224;-0.164;2022-07-25T02:32:42;100204.13;;;22.89;44.76
57452;BME280;54295;51.224;-0.164;2022-07-25T02:35:09;100195.71;;;22.85;44.80
57452;BME280;54295;51.224;-0.164;2022-07-25T02:37:36;100193.24;;;22.81;44.87
57452;BME280;54295;51.224;-0.164;2022-07-25T02:40:04;100199.58;;;22.67;44.97
57452;BME280;54295;51.224;-0.164;2022-07-25T02:42:31;100204.53;;;22.62;44.99
57452;BME280;54295;51.224;-0.164;2022-07-25T02:44:58;100208.24;;;22.53;45.07
57452;BME280;54295;51.224;-0.164;2022-07-25T02:47:25;100206.75;;;22.43;45.15
57452;BME280;54295;51.224;-0.164;2022-07-25T02:49:52;100209.85;;;22.36;45.20
57452;BME280;54295;51.224;-0.164;2022-07-25T02:52:19;100205.15;;;22.59;45.26
57452;BME280;54295;51.224;-0.164;2022-07-25T02:54:46;100199.98;;;22.53;45.40
57452;BME280;54295;51.224;-0.164;2022-07-25T02:57:13;100187.66;;;22.72;45.40
57452;BME280;54295;51.224;-0.164;2022-07-25T02:59:40;100179.94;;;22.19;45.44
57452;BME280;54295;51.224;-0.164;2022-07-25T03:02:07;100176.23;;;22.21;45.46
57452;BME280;54295;51.224;-0.164;2022-07-25T03:04:33;100178.93;;;22.52;45.39
57452;BME280;54295;51.224;-0.164;2022-07-25T03:07:00;100176.58;;;22.24;45.46
57452;BME280;54295;51.224;-0.164;2022-07-25T03:09:27;100172.15;;;22.22;45.47
57452;BME280;54295;51.224;-0.164;2022-07-25T03:11:54;100169.43;;;22.21;45.52
57452;BME280;54295;51.224;-0.164;2022-07-25T03:14:21;100168.28;;;22.26;45.48
57452;BME280;54295;51.224;-0.164;2022-07-25T03:16:48;100167.38;;;22.28;45.47
57452;BME280;54295;51.224;-0.164;2022-07-25T03:19:15;100165.30;;;22.56;45.43
57452;BME280;54295;51.224;-0.164;2022-07-25T03:21:42;100160.97;;;22.27;45.40
57452;BME280;54295;51.224;-0.164;2022-07-25T03:24:09;100162.58;;;22.28;45.37
57452;BME280;54295;51.224;-0.164;2022-07-25T03:26:36;100164.58;;;22.25;45.47
57452;BME280;54295;51.224;-0.164;2022-07-25T03:29:03;100163.11;;;22.29;45.42
57452;BME280;54295;51.224;-0.164;2022-07-25T03:31:30;100163.10;;;22.34;45.34
57452;BME280;54295;51.224;-0.164;2022-07-25T03:33:57;100161.46;;;22.39;45.35
57452;BME280;54295;51.224;-0.164;2022-07-25T03:36:24;100150.85;;;22.47;45.29
57452;BME280;54295;51.224;-0.164;2022-07-25T03:38:51;100154.24;;;22.52;45.24
57452;BME280;54295;51.224;-0.164;2022-07-25T03:41:18;100162.23;;;22.60;45.15
57452;BME280;54295;51.224;-0.164;2022-07-25T03:43:45;100158.06;;;22.90;45.13
57452;BME280;54295;51.224;-0.164;2022-07-25T03:46:12;100161.77;;;22.66;45.08
57452;BME280;54295;51.224;-0.164;2022-07-25T03:48:39;100160.13;;;22.67;45.08
57452;BME280;54295;51.224;-0.164;2022-07-25T03:51:06;100159.68;;;22.71;45.03
57452;BME280;54295;51.224;-0.164;2022-07-25T03:53:33;100167.65;;;22.70;45.06
57452;BME280;54295;51.224;-0.164;2022-07-25T03:56:00;100165.27;;;22.72;45.05
57452;BME280;54295;51.224;-0.164;2022-07-25T03:58:27;100167.95;;;22.74;44.98
57452;BME280;54295;51.224;-0.164;2022-07-25T04:00:54;100165.51;;;22.76;44.94
57452;BME280;54295;51.224;-0.164;2022-07-25T04:03:21;100167.38;;;23.06;44.90
57452;BME280;54295;51.224;-0.164;2022-07-25T04:05:48;100168.03;;;23.06;44.90
57452;BME280;54295;51.224;-0.164;2022-07-25T04:08:15;100159.28;;;22.79;44.88
57452;BME280;54295;51.224;-0.164;2022-07-25T04:10:42;100147.54;;;22.78;44.80
57452;BME280;54295;51.224;-0.164;2022-07-25T04:13:09;100146.09;;;22.77;44.67
57452;BME280;54295;51.224;-0.164;2022-07-25T04:15:36;100146.26;;;22.79;44.58
57452;BME280;54295;51.224;-0.164;2022-07-25T04:18:03;100150.68;;;23.04;44.54
57452;BME280;54295;51.224;-0.164;2022-07-25T04:20:30;100150.82;;;22.76;44.46
57452;BME280;54295;51.224;-0.164;2022-07-25T04:22:57;100151.94;;;22.77;44.25
57452;BME280;54295;51.224;-0.164;2022-07-25T04:25:24;100148.58;;;22.71;44.12
57452;BME280;54295;51.224;-0.164;2022-07-25T04:27:51;100147.36;;;22.61;44.06
57452;BME280;54295;51.224;-0.164;2022-07-25T04:30:18;100148.47;;;22.46;44.03
57452;BME280;54295;51.224;-0.164;2022-07-25T04:32:45;100155.16;;;22.59;44.13
57452;BME280;54295;51.224;-0.164;2022-07-25T04:35:12;100153.23;;;22.23;44.26
57452;BME280;54295;51.224;-0.164;2022-07-25T04:37:38;100153.63;;;22.71;44.21
57452;BME280;54295;51.224;-0.164;2022-07-25T04:40:06;100151.83;;;22.18;44.26
57452;BME280;54295;51.224;-0.164;2022-07-25T04:42:33;100149.78;;;22.14;44.27
57452;BME280;54295;51.224;-0.164;2022-07-25T04:45:00;100148.06;;;22.09;44.28
57452;BME280;54295;51.224;-0.164;2022-07-25T04:47:27;100147.99;;;22.06;44.28
57452;BME280;54295;51.224;-0.164;2022-07-25T04:49:54;100146.55;;;22.08;44.14
57452;BME280;54295;51.224;-0.164;2022-07-25T04:52:21;100144.98;;;22.49;44.23
57452;BME280;54295;51.224;-0.164;2022-07-25T04:54:48;100145.87;;;21.95;44.21
57452;BME280;54295;51.224;-0.164;2022-07-25T04:57:15;100150.28;;;21.90;44.24
57452;BME280;54295;51.224;-0.164;2022-07-25T04:59:42;100155.25;;;22.35;44.30
57452;BME280;54295;51.224;-0.164;2022-07-25T05:02:09;100153.25;;;21.81;44.32
57452;BME280;54295;51.224;-0.164;2022-07-25T05:04:36;100158.88;;;22.24;44.36
57452;BME280;54295;51.224;-0.164;2022-07-25T05:07:03;100162.27;;;21.74;44.44
57452;BME280;54295;51.224;-0.164;2022-07-25T05:09:30;100158.11;;;22.22;44.40
57452;BME280;54295;51.224;-0.164;2022-07-25T05:11:58;100152.35;;;21.98;44.42
57452;BME280;54295;51.224;-0.164;2022-07-25T05:14:25;100154.70;;;21.90;44.56
57452;BME280;54295;51.224;-0.164;2022-07-25T05:16:52;100153.26;;;22.14;44.46
57452;BME280;54295;51.224;-0.164;2022-07-25T05:19:19;100158.84;;;21.71;44.47
57452;BME280;54295;51.224;-0.164;2022-07-25T05:21:46;100160.61;;;22.00;44.52
57452;BME280;54295;51.224;-0.164;2022-07-25T05:24:13;100159.33;;;22.04;44.48
57452;BME280;54295;51.224;-0.164;2022-07-25T05:26:39;100157.16;;;22.31;44.42
57452;BME280;54295;51.224;-0.164;2022-07-25T05:29:06;100149.43;;;22.27;44.44
57452;BME280;54295;51.224;-0.164;2022-07-25T05:31:33;100150.06;;;21.99;44.57
57452;BME280;54295;51.224;-0.164;2022-07-25T05:34:00;100150.88;;;21.95;44.63
57452;BME280;54295;51.224;-0.164;2022-07-25T05:36:27;100151.83;;;22.26;44.66
57452;BME280;54295;51.224;-0.164;2022-07-25T05:38:54;100153.35;;;22.12;44.54
57452;BME280;54295;51.224;-0.164;2022-07-25T05:41:21;100154.14;;;22.42;44.31
57452;BME280;54295;51.224;-0.164;2022-07-25T05:43:48;100151.28;;;22.30;44.12
57452;BME280;54295;51.224;-0.164;2022-07-25T05:46:15;100153.54;;;22.60;43.79
57452;BME280;54295;51.224;-0.164;2022-07-25T05:48:42;100152.27;;;22.22;43.59
57452;BME280;54295;51.224;-0.164;2022-07-25T05:51:09;100146.12;;;22.34;43.36
57452;BME280;54295;51.224;-0.164;2022-07-25T05:53:36;100142.66;;;22.44;43.21
57452;BME280;54295;51.224;-0.164;2022-07-25T05:56:04;100146.41;;;22.84;42.84
57452;BME280;54295;51.224;-0.164;2022-07-25T05:58:31;100149.72;;;22.74;42.54
57452;BME280;54295;51.224;-0.164;2022-07-25T06:00:58;100154.64;;;22.84;42.19
57452;BME280;54295;51.224;-0.164;2022-07-25T06:03:25;100149.73;;;22.84;41.93
57452;BME280;54295;51.224;-0.164;2022-07-25T06:05:54;100154.23;;;22.73;41.81
57452;BME280;54295;51.224;-0.164;2022-07-25T06:08:21;100151.24;;;22.64;41.83
57452;BME280;54295;51.224;-0.164;2022-07-25T06:10:48;100156.13;;;22.56;41.86
57452;BME280;54295;51.224;-0.164;2022-07-25T06:13:15;100159.84;;;22.54;42.00
57452;BME280;54295;51.224;-0.164;2022-07-25T06:15:42;100154.29;;;22.55;41.93
57452;BME280;54295;51.224;-0.164;2022-07-25T06:18:09;100153.23;;;22.57;41.94
57452;BME280;54295;51.224;-0.164;2022-07-25T06:20:36;100159.25;;;22.61;41.93
57452;BME280;54295;51.224;-0.164;2022-07-25T06:23:03;100158.70;;;22.75;41.87
57452;BME280;54295;51.224;-0.164;2022-07-25T06:25:30;100154.40;;;22.84;41.71
57452;BME280;54295;51.224;-0.164;2022-07-25T06:27:57;100154.28;;;22.96;41.52
57452;BME280;54295;51.224;-0.164;2022-07-25T06:30:24;100161.73;;;22.60;41.27
57452;BME280;54295;51.224;-0.164;2022-07-25T06:32:51;100158.95;;;23.24;41.07
57452;BME280;54295;51.224;-0.164;2022-07-25T06:35:18;100164.55;;;23.37;40.86
57452;BME280;54295;51.224;-0.164;2022-07-25T06:37:45;100171.73;;;23.54;40.62
57452;BME280;54295;51.224;-0.164;2022-07-25T06:40:13;100175.05;;;23.43;40.28
57452;BME280;54295;51.224;-0.164;2022-07-25T06:42:42;100177.48;;;23.47;40.01
57452;BME280;54295;51.224;-0.164;2022-07-25T06:45:11;100175.84;;;23.62;39.94
57452;BME280;54295;51.224;-0.164;2022-07-25T06:47:40;100172.78;;;23.98;39.58
57452;BME280;54295;51.224;-0.164;2022-07-25T06:50:09;100173.27;;;23.82;39.36
57452;BME280;54295;51.224;-0.164;2022-07-25T06:52:37;100169.65;;;23.88;39.30
57452;BME280;54295;51.224;-0.164;2022-07-25T06:55:06;100169.19;;;23.94;39.20
57452;BME280;54295;51.224;-0.164;2022-07-25T06:57:35;100175.35;;;23.69;39.19
57452;BME280;54295;51.224;-0.164;2022-07-25T07:00:04;100176.53;;;23.79;39.07
57452;BME280;54295;51.224;-0.164;2022-07-25T07:02:31;100182.54;;;24.17;39.05
57452;BME280;54295;51.224;-0.164;2022-07-25T07:04:58;100187.52;;;24.06;38.56
57452;BME280;54295;51.224;-0.164;2022-07-25T07:07:25;100186.07;;;24.12;38.42
57452;BME280;54295;51.224;-0.164;2022-07-25T07:09:52;100186.49;;;24.14;38.18
57452;BME280;54295;51.224;-0.164;2022-07-25T07:12:19;100188.16;;;24.14;38.03
57452;BME280;54295;51.224;-0.164;2022-07-25T07:14:46;100189.02;;;24.13;38.02
57452;BME280;54295;51.224;-0.164;2022-07-25T07:17:13;100191.54;;;24.15;37.93
57452;BME280;54295;51.224;-0.164;2022-07-25T07:19:39;100191.45;;;24.22;37.77
57452;BME280;54295;51.224;-0.164;2022-07-25T07:22:06;100193.40;;;24.04;37.55
57452;BME280;54295;51.224;-0.164;2022-07-25T07:24:33;100192.72;;;24.50;37.20
57452;BME280;54295;51.224;-0.164;2022-07-25T07:27:01;100196.96;;;24.34;37.27
57452;BME280;54295;51.224;-0.164;2022-07-25T07:29:28;100194.37;;;23.94;37.13
57452;BME280;54295;51.224;-0.164;2022-07-25T07:31:55;100193.97;;;24.47;37.14
57452;BME280;54295;51.224;-0.164;2022-07-25T07:34:22;100195.77;;;24.35;37.11
57452;BME280;54295;51.224;-0.164;2022-07-25T07:36:49;100193.34;;;24.66;36.96
57452;BME280;54295;51.224;-0.164;2022-07-25T07:39:16;100193.34;;;24.35;36.81
57452;BME280;54295;51.224;-0.164;2022-07-25T07:41:42;100193.82;;;24.53;36.53
57452;BME280;54295;51.224;-0.164;2022-07-25T07:44:09;100192.86;;;24.56;36.32
57452;BME280;54295;51.224;-0.164;2022-07-25T07:46:36;100198.36;;;24.60;35.92
57452;BME280;54295;51.224;-0.164;2022-07-25T07:49:03;100199.33;;;24.96;35.98
57452;BME280;54295;51.224;-0.164;2022-07-25T07:51:30;100196.40;;;24.38;36.07
57452;BME280;54295;51.224;-0.164;2022-07-25T07:53:57;100191.86;;;24.21;36.17
57452;BME280;54295;51.224;-0.164;2022-07-25T07:56:24;100189.02;;;24.29;36.19
57452;BME280;54295;51.224;-0.164;2022-07-25T07:58:50;100192.50;;;24.04;36.37
57452;BME280;54295;51.224;-0.164;2022-07-25T08:01:17;100195.48;;;23.81;36.37
57452;BME280;54295;51.224;-0.164;2022-07-25T08:03:44;100195.48;;;24.59;36.24
57452;BME280;54295;51.224;-0.164;2022-07-25T08:06:11;100193.29;;;24.81;36.18
57452;BME280;54295;51.224;-0.164;2022-07-25T08:08:38;100194.96;;;24.84;36.04
57452;BME280;54295;51.224;-0.164;2022-07-25T08:11:05;100192.42;;;24.82;35.90
57452;BME280;54295;51.224;-0.164;2022-07-25T08:13:33;100194.94;;;24.72;35.89
57452;BME280;54295;51.224;-0.164;2022-07-25T08:16:01;100197.29;;;24.87;35.80
57452;BME280;54295;51.224;-0.164;2022-07-25T08:18:29;100203.18;;;25.11;35.16
57452;BME280;54295;51.224;-0.164;2022-07-25T08:20:57;100197.35;;;25.02;34.70
57452;BME280;54295;51.224;-0.164;2022-07-25T08:23:24;100203.80;;;25.30;34.82
57452;BME280;54295;51.224;-0.164;2022-07-25T08:25:51;100199.75;;;25.17;34.56
57452;BME280;54295;51.224;-0.164;2022-07-25T08:28:19;100206.08;;;25.25;34.71
57452;BME280;54295;51.224;-0.164;2022-07-25T08:30:46;100202.66;;;25.01;34.64
57452;BME280;54295;51.224;-0.164;2022-07-25T08:33:14;100200.22;;;25.16;34.52
57452;BME280;54295;51.224;-0.164;2022-07-25T08:35:45;100199.90;;;25.51;34.37
57452;BME280;54295;51.224;-0.164;2022-07-25T08:38:13;100198.48;;;25.62;34.15
57452;BME280;54295;51.224;-0.164;2022-07-25T08:40:40;100199.38;;;25.68;33.98
57452;BME280;54295;51.224;-0.164;2022-07-25T08:43:10;100201.36;;;25.47;33.82
57452;BME280;54295;51.224;-0.164;2022-07-25T08:45:42;100203.24;;;25.70;33.66
57452;BME280;54295;51.224;-0.164;2022-07-25T08:48:10;100209.10;;;25.24;33.52
57452;BME280;54295;51.224;-0.164;2022-07-25T08:50:38;100211.61;;;25.43;33.44
57452;BME280;54295;51.224;-0.164;2022-07-25T08:53:05;100213.70;;;25.25;33.77
57452;BME280;54295;51.224;-0.164;2022-07-25T08:55:32;100215.27;;;25.13;33.83
57452;BME280;54295;51.224;-0.164;2022-07-25T08:57:59;100211.44;;;25.11;34.08
57452;BME280;54295;51.224;-0.164;2022-07-25T09:00:27;100209.82;;;25.25;34.16
57452;BME280;54295;51.224;-0.164;2022-07-25T09:02:56;100207.84;;;25.42;33.92
57452;BME280;54295;51.224;-0.164;2022-07-25T09:05:25;100207.81;;;25.61;33.62
57452;BME280;54295;51.224;-0.164;2022-07-25T09:07:54;100214.57;;;25.39;33.29
57452;BME280;54295;51.224;-0.164;2022-07-25T09:10:23;100216.00;;;25.50;32.80
57452;BME280;54295;51.224;-0.164;2022-07-25T09:12:52;100218.66;;;25.21;32.73
57452;BME280;54295;51.224;-0.164;2022-07-25T09:15:29;100221.22;;;25.17;32.88
57452;BME280;54295;51.224;-0.164;2022-07-25T09:17:58;100219.17;;;25.49;33.06
57452;BME280;54295;51.224;-0.164;2022-07-25T09:20:37;100222.60;;;25.23;32.92
57452;BME280;54295;51.224;-0.164;2022-07-25T09:23:05;100219.07;;;25.45;32.95
57452;BME280;54295;51.224;-0.164;2022-07-25T09:25:33;100222.21;;;25.55;32.94
57452;BME280;54295;51.224;-0.164;2022-07-25T09:28:10;100224.84;;;25.64;32.97
57452;BME280;54295;51.224;-0.164;2022-07-25T09:30:38;100227.91;;;25.71;32.92
57452;BME280;54295;51.224;-0.164;2022-07-25T09:33:05;100228.76;;;25.43;32.80
57452;BME280;54295;51.224;-0.164;2022-07-25T09:35:34;100233.23;;;25.50;32.89
57452;BME280;54295;51.224;-0.164;2022-07-25T09:38:10;100240.64;;;25.80;32.82
57452;BME280;54295;51.224;-0.164;2022-07-25T09:40:39;100240.50;;;25.50;32.72
57452;BME280;54295;51.224;-0.164;2022-07-25T09:43:06;100241.93;;;25.86;32.50
57452;BME280;54295;51.224;-0.164;2022-07-25T09:45:33;100239.82;;;25.75;32.29
57452;BME280;54295;51.224;-0.164;2022-07-25T09:48:02;100234.12;;;26.01;32.11
57452;BME280;54295;51.224;-0.164;2022-07-25T09:50:31;100237.21;;;25.76;31.96
57452;BME280;54295;51.224;-0.164;2022-07-25T09:53:00;100234.70;;;25.75;31.91
57452;BME280;54295;51.224;-0.164;2022-07-25T09:55:29;100236.33;;;25.92;31.89
57452;BME280;54295;51.224;-0.164;2022-07-25T09:57:56;100235.53;;;26.22;31.92
57452;BME280;54295;51.224;-0.164;2022-07-25T10:00:25;100236.18;;;25.98;31.95
57452;BME280;54295;51.224;-0.164;2022-07-25T10:03:07;100234.08;;;26.03;31.94
57452;BME280;54295;51.224;-0.164;2022-07-25T10:05:50;100236.12;;;25.93;32.05
57452;BME280;54295;51.224;-0.164;2022-07-25T10:08:21;100242.33;;;26.14;32.05
57452;BME280;54295;51.224;-0.164;2022-07-25T10:10:49;100244.79;;;26.54;31.60
57452;BME280;54295;51.224;-0.164;2022-07-25T10:13:28;100247.52;;;26.50;31.62
57452;BME280;54295;51.224;-0.164;2022-07-25T10:15:56;100247.83;;;26.59;31.42
57452;BME280;54295;51.224;-0.164;2022-07-25T10:18:26;100254.86;;;26.52;31.25
57452;BME280;54295;51.224;-0.164;2022-07-25T10:21:08;100256.13;;;26.84;30.94
57452;BME280;54295;51.224;-0.164;2022-07-25T10:23:36;100256.17;;;26.92;30.98
57452;BME280;54295;51.224;-0.164;2022-07-25T10:26:08;100260.15;;;26.88;31.34
57452;BME280;54295;51.224;-0.164;2022-07-25T10:28:39;100259.87;;;26.74;31.59
57452;BME280;54295;51.224;-0.164;2022-07-25T10:31:24;100266.90;;;26.72;31.66
57452;BME280;54295;51.224;-0.164;2022-07-25T10:33:54;100266.32;;;26.33;31.91
57452;BME280;54295;51.224;-0.164;2022-07-25T10:36:23;100272.62;;;26.41;32.10
57452;BME280;54295;51.224;-0.164;2022-07-25T10:38:54;100277.83;;;26.45;32.35
57452;BME280;54295;51.224;-0.164;2022-07-25T10:41:23;100272.46;;;26.04;32.70
57452;BME280;54295;51.224;-0.164;2022-07-25T10:43:54;100280.62;;;26.26;32.77
57452;BME280;54295;51.224;-0.164;2022-07-25T10:46:25;100279.89;;;26.28;32.80
57452;BME280;54295;51.224;-0.164;2022-07-25T10:48:58;100278.30;;;25.87;32.80
57452;BME280;54295;51.224;-0.164;2022-07-25T10:51:26;100274.70;;;26.39;32.76
57452;BME280;54295;51.224;-0.164;2022-07-25T10:53:54;100279.93;;;26.21;32.74
57452;BME280;54295;51.224;-0.164;2022-07-25T10:56:21;100283.44;;;26.48;32.61
57452;BME280;54295;51.224;-0.164;2022-07-25T10:58:51;100282.87;;;26.20;32.25
57452;BME280;54295;51.224;-0.164;2022-07-25T11:01:21;100283.88;;;26.17;32.14
57452;BME280;54295;51.224;-0.164;2022-07-25T11:03:49;100287.88;;;25.97;32.17
57452;BME280;54295;51.224;-0.164;2022-07-25T11:06:29;100285.09;;;26.07;32.17
57452;BME280;54295;51.224;-0.164;2022-07-25T11:08:57;100285.99;;;26.23;32.39
57452;BME280;54295;51.224;-0.164;2022-07-25T11:11:33;100286.87;;;26.18;32.35
57452;BME280;54295;51.224;-0.164;2022-07-25T11:14:00;100283.49;;;26.44;32.41
57452;BME280;54295;51.224;-0.164;2022-07-25T11:16:28;100289.97;;;26.13;32.31
57452;BME280;54295;51.224;-0.164;2022-07-25T11:18:55;100291.59;;;26.15;32.06
57452;BME280;54295;51.224;-0.164;2022-07-25T11:21:22;100294.81;;;26.25;32.04
57452;BME280;54295;51.224;-0.164;2022-07-25T11:23:50;100291.31;;;26.18;32.13
57452;BME280;54295;51.224;-0.164;2022-07-25T11:26:18;100289.98;;;26.27;31.80
57452;BME280;54295;51.224;-0.164;2022-07-25T11:28:47;100294.72;;;26.42;31.88
57452;BME280;54295;51.224;-0.164;2022-07-25T11:31:17;100296.59;;;26.63;31.67
57452;BME280;54295;51.224;-0.164;2022-07-25T11:33:47;100292.28;;;26.52;31.72
57452;BME280;54295;51.224;-0.164;2022-07-25T11:36:15;100292.91;;;26.82;31.75
57452;BME280;54295;51.224;-0.164;2022-07-25T11:38:47;100295.15;;;26.54;31.75
57452;BME280;54295;51.224;-0.164;2022-07-25T11:41:14;100297.28;;;26.75;31.77
57452;BME280;54295;51.224;-0.164;2022-07-25T11:43:47;100298.19;;;26.25;31.87
57452;BME280;54295;51.224;-0.164;2022-07-25T11:46:14;100296.30;;;26.84;31.92
57452;BME280;54295;51.224;-0.164;2022-07-25T11:48:41;100298.76;;;26.98;31.90
57452;BME280;54295;51.224;-0.164;2022-07-25T11:51:11;100302.03;;;26.89;31.74
57452;BME280;54295;51.224;-0.164;2022-07-25T11:53:42;100306.79;;;26.73;31.59
57452;BME280;54295;51.224;-0.164;2022-07-25T11:56:12;100311.02;;;26.99;31.32
57452;BME280;54295;51.224;-0.164;2022-07-25T11:58:39;100313.78;;;26.68;31.45
57452;BME280;54295;51.224;-0.164;2022-07-25T12:01:11;100316.45;;;27.20;31.55
57452;BME280;54295;51.224;-0.164;2022-07-25T12:03:39;100322.60;;;27.01;31.77
57452;BME280;54295;51.224;-0.164;2022-07-25T12:06:08;100317.55;;;27.16;32.17
57452;BME280;54295;51.224;-0.164;2022-07-25T12:08:37;100318.14;;;27.13;32.29
57452;BME280;54295;51.224;-0.164;2022-07-25T12:11:16;100317.78;;;26.89;32.38
57452;BME280;54295;51.224;-0.164;2022-07-25T12:13:44;100319.47;;;26.84;32.40
57452;BME280;54295;51.224;-0.164;2022-07-25T12:16:11;100321.37;;;26.75;32.42
57452;BME280;54295;51.224;-0.164;2022-07-25T12:18:38;100323.89;;;26.90;32.41
57452;BME280;54295;51.224;-0.164;2022-07-25T12:21:06;100323.09;;;26.73;32.55
57452;BME280;54295;51.224;-0.164;2022-07-25T12:23:33;100323.87;;;26.12;32.89
57452;BME280;54295;51.224;-0.164;2022-07-25T12:26:00;100329.36;;;26.62;33.90
57452;BME280;54295;51.224;-0.164;2022-07-25T12:28:27;100336.46;;;26.27;34.56
57452;BME280;54295;51.224;-0.164;2022-07-25T12:30:54;100336.28;;;25.88;34.71
57452;BME280;54295;51.224;-0.164;2022-07-25T12:33:21;100340.39;;;25.96;35.07
57452;BME280;54295;51.224;-0.164;2022-07-25T12:35:48;100342.78;;;26.03;35.11
57452;BME280;54295;51.224;-0.164;2022-07-25T12:38:15;100342.02;;;25.91;35.14
57452;BME280;54295;51.224;-0.164;2022-07-25T12:40:41;100344.70;;;26.11;35.01
57452;BME280;54295;51.224;-0.164;2022-07-25T12:43:08;100342.75;;;26.24;34.67